Time;durP1;ratioP1;P1;durP2;ratioP2;P2;SDS_P1;SDS_P2;PMS_P1;PMS_P2;Temp;Humidity;BMP_temperature;BMP_pressure;BME280_temperature;BME280_humidity;BME280_pressure;Samples;Min_cycle;Max_cycle;Signal;HPM_P1;HPM_P2
2021/11/22 00:00:00;;;;;;;2.88;1.40;;;20.80;57.30;;;;;;4944700;29;20039;-44
2021/11/22 00:02:27;;;;;;;1.40;1.00;;;20.80;57.30;;;;;;4944467;29;20020;-41
2021/11/22 00:04:53;;;;;;;2.22;1.50;;;20.80;57.30;;;;;;4945421;29;20054;-41
2021/11/22 00:07:19;;;;;;;1.75;1.20;;;20.80;57.20;;;;;;4944511;29;20039;-43
2021/11/22 00:09:45;;;;;;;1.80;1.42;;;20.80;57.40;;;;;;4944102;29;20060;-42
2021/11/22 00:12:11;;;;;;;1.35;1.13;;;20.80;57.40;;;;;;4945111;29;20035;-41
2021/11/22 00:14:37;;;;;;;2.13;1.30;;;20.80;57.40;;;;;;4944931;29;20046;-43
2021/11/22 00:17:04;;;;;;;1.48;1.05;;;20.80;57.50;;;;;;4944462;29;20048;-43
2021/11/22 00:19:30;;;;;;;2.15;1.33;;;20.80;57.50;;;;;;4945066;29;20051;-41
2021/11/22 00:21:56;;;;;;;1.83;1.30;;;20.80;57.50;;;;;;4944423;29;20046;-43
2021/11/22 00:24:22;;;;;;;1.55;1.20;;;20.80;57.50;;;;;;4944197;29;20032;-42
2021/11/22 00:26:49;;;;;;;1.65;1.20;;;20.80;57.40;;;;;;4944982;29;20055;-42
2021/11/22 00:29:15;;;;;;;1.88;1.20;;;20.70;57.40;;;;;;4944726;29;20082;-41
2021/11/22 00:31:42;;;;;;;3.42;1.25;;;20.70;57.30;;;;;;4944109;29;20063;-42
2021/11/22 00:34:08;;;;;;;1.58;1.27;;;20.80;57.40;;;;;;4945161;29;20054;-42
2021/11/22 00:36:34;;;;;;;1.63;1.20;;;20.80;57.50;;;;;;4944472;29;20214;-42
2021/11/22 00:39:00;;;;;;;2.20;1.27;;;20.80;57.60;;;;;;4944229;29;20083;-41
2021/11/22 00:41:27;;;;;;;2.17;1.30;;;20.80;57.70;;;;;;4944689;29;20028;-41
2021/11/22 00:43:54;;;;;;;1.87;1.00;;;20.80;57.60;;;;;;4944449;29;20028;-44
2021/11/22 00:46:20;;;;;;;1.98;1.40;;;20.80;57.60;;;;;;4944487;29;20028;-42
2021/11/22 00:48:46;;;;;;;1.80;1.25;;;20.80;57.60;;;;;;4944812;29;20031;-41
2021/11/22 00:51:12;;;;;;;2.30;1.20;;;20.80;57.60;;;;;;4944275;29;20023;-42
2021/11/22 00:53:38;;;;;;;1.42;1.02;;;20.80;57.50;;;;;;4944173;29;20120;-41
2021/11/22 00:56:05;;;;;;;1.77;1.10;;;20.80;57.50;;;;;;4946610;29;20075;-42
2021/11/22 00:58:31;;;;;;;1.95;1.30;;;20.70;57.40;;;;;;4947767;29;20030;-43
2021/11/22 01:00:57;;;;;;;1.52;1.10;;;20.70;57.40;;;;;;4948039;29;20031;-44
2021/11/22 01:03:23;;;;;;;1.70;1.15;;;20.80;57.50;;;;;;4947955;29;20130;-43
2021/11/22 01:05:49;;;;;;;1.85;1.30;;;20.80;57.60;;;;;;4947360;29;20091;-42
2021/11/22 01:08:15;;;;;;;1.80;0.88;;;20.80;57.60;;;;;;4947799;29;20031;-41
2021/11/22 01:10:41;;;;;;;1.92;1.38;;;20.80;57.60;;;;;;4947661;29;20031;-42
2021/11/22 01:13:08;;;;;;;1.80;1.20;;;20.80;57.60;;;;;;4947433;29;20030;-43
2021/11/22 01:15:34;;;;;;;1.40;1.02;;;20.80;57.60;;;;;;4947830;29;20067;-41
2021/11/22 01:18:00;;;;;;;1.40;1.20;;;20.80;57.50;;;;;;4947646;29;20040;-41
2021/11/22 01:20:31;;;;;;;1.80;1.27;;;20.80;57.50;;;;;;4947273;29;20079;-41
2021/11/22 01:23:09;;;;;;;2.65;1.27;;;20.70;57.50;;;;;;4947581;29;20463;-41
2021/11/22 01:25:35;;;;;;;1.88;1.48;;;20.80;57.50;;;;;;4946887;29;20749;-42
2021/11/22 01:28:03;;;;;;;1.37;1.10;;;20.80;57.70;;;;;;4947067;29;20059;-42
2021/11/22 01:30:28;;;;;;;;;;;20.90;57.90;;;;;;4947936;29;20104;-42
2021/11/22 01:32:55;;;;;;;2.15;1.35;;;20.90;57.80;;;;;;4947176;29;19946;-42
2021/11/22 01:35:21;;;;;;;2.35;1.35;;;20.90;57.80;;;;;;4946853;29;20099;-42
2021/11/22 01:37:47;;;;;;;1.48;1.20;;;20.80;57.70;;;;;;4947507;29;20114;-42
2021/11/22 01:40:16;;;;;;;1.90;1.40;;;20.80;57.70;;;;;;4946297;29;20089;-42
2021/11/22 01:42:42;;;;;;;1.98;1.40;;;20.80;57.70;;;;;;4946163;29;20035;-41
2021/11/22 01:45:10;;;;;;;1.92;1.25;;;20.80;57.70;;;;;;4932371;29;20028;-42
2021/11/22 01:47:36;;;;;;;1.67;1.20;;;20.80;57.70;;;;;;4928028;29;20028;-42
2021/11/22 01:50:04;;;;;;;2.47;1.45;;;20.80;57.70;;;;;;4944355;29;20036;-43
2021/11/22 01:52:29;;;;;;;;;;;20.80;57.80;;;;;;4947276;29;20257;-40
2021/11/22 01:54:56;;;;;;;2.60;1.38;;;20.90;57.90;;;;;;4946799;29;19926;-42
2021/11/22 01:57:22;;;;;;;2.50;1.88;;;20.90;57.90;;;;;;4946666;29;20031;-42
2021/11/22 01:59:48;;;;;;;2.65;1.58;;;20.90;57.80;;;;;;4946484;29;20032;-41
2021/11/22 02:02:14;;;;;;;2.00;1.52;;;20.90;57.80;;;;;;4946838;29;20027;-41
2021/11/22 02:04:40;;;;;;;2.83;1.45;;;20.90;57.80;;;;;;4946556;29;20038;-42
2021/11/22 02:07:07;;;;;;;2.90;1.63;;;20.80;57.70;;;;;;4946898;29;20035;-42
2021/11/22 02:09:33;;;;;;;2.08;1.67;;;20.80;57.80;;;;;;4946498;29;20036;-42
2021/11/22 02:11:59;;;;;;;2.67;1.40;;;20.80;57.60;;;;;;4946317;29;20039;-41
2021/11/22 02:14:25;;;;;;;2.20;1.60;;;20.80;57.70;;;;;;4946461;29;20560;-41
2021/11/22 02:16:51;;;;;;;2.35;1.80;;;20.80;57.80;;;;;;4939757;29;20043;-41
2021/11/22 02:19:18;;;;;;;2.38;1.70;;;20.90;58.00;;;;;;4945881;29;20428;-42
2021/11/22 02:21:46;;;;;;;2.33;1.70;;;20.90;58.00;;;;;;4940932;29;20083;-42
2021/11/22 02:24:12;;;;;;;2.47;1.75;;;20.90;57.90;;;;;;4945260;29;20371;-43
2021/11/22 02:26:38;;;;;;;2.23;1.40;;;20.90;57.80;;;;;;4945933;29;20032;-42
2021/11/22 02:29:05;;;;;;;2.35;1.70;;;20.90;57.80;;;;;;4941232;29;20032;-41
2021/11/22 02:31:31;;;;;;;2.17;1.50;;;20.80;57.80;;;;;;4935548;29;20653;-43
2021/11/22 02:33:57;;;;;;;2.42;1.42;;;20.80;57.80;;;;;;4938982;29;20134;-41
2021/11/22 02:36:24;;;;;;;2.13;1.65;;;20.80;57.80;;;;;;4928783;29;20815;-44
2021/11/22 02:38:50;;;;;;;2.63;1.65;;;20.80;57.80;;;;;;4945634;29;20028;-42
2021/11/22 02:41:16;;;;;;;2.53;1.67;;;20.90;58.00;;;;;;4938260;29;20616;-42
2021/11/22 02:43:44;;;;;;;2.03;1.58;;;20.90;58.00;;;;;;4935278;29;20706;-42
2021/11/22 02:46:10;;;;;;;2.13;1.70;;;20.90;58.00;;;;;;4930766;29;20655;-42
2021/11/22 02:48:36;;;;;;;3.17;1.70;;;20.90;57.90;;;;;;4944107;29;20031;-43
2021/11/22 02:51:04;;;;;;;3.28;1.70;;;20.90;57.90;;;;;;4945619;29;20042;-42
2021/11/22 02:53:31;;;;;;;2.45;1.52;;;20.90;57.90;;;;;;4945826;29;20136;-41
2021/11/22 02:56:03;;;;;;;2.63;1.85;;;20.90;57.80;;;;;;4930323;29;20040;-41
2021/11/22 02:58:30;;;;;;;3.40;1.83;;;20.80;57.80;;;;;;4942113;29;20094;-42
2021/11/22 03:00:56;;;;;;;2.80;1.98;;;20.80;57.80;;;;;;4930782;29;20032;-42
2021/11/22 03:03:29;;;;;;;2.05;1.45;;;20.80;57.80;;;;;;4937978;29;20036;-42
2021/11/22 03:06:12;;;;;;;2.00;1.50;;;20.90;57.90;;;;;;4937735;29;20028;-43
2021/11/22 03:08:39;;;;;;;2.72;1.70;;;20.90;58.10;;;;;;4945263;29;20564;-42
2021/11/22 03:11:05;;;;;;;2.97;1.70;;;20.90;58.00;;;;;;4944759;29;20091;-43
2021/11/22 03:13:31;;;;;;;2.35;1.88;;;20.90;58.00;;;;;;4945115;29;20027;-42
2021/11/22 03:15:59;;;;;;;2.97;1.90;;;20.90;58.00;;;;;;4940118;29;20031;-42
2021/11/22 03:18:24;;;;;;;;;;;20.90;58.00;;;;;;4941522;29;20068;-42
2021/11/22 03:20:51;;;;;;;2.92;1.73;;;20.90;58.00;;;;;;4925546;29;19918;-43
2021/11/22 03:23:17;;;;;;;2.90;1.77;;;20.90;57.90;;;;;;4925564;29;20035;-42
2021/11/22 03:25:43;;;;;;;2.35;1.67;;;20.80;57.90;;;;;;4937996;29;20031;-43
2021/11/22 03:28:11;;;;;;;2.92;1.88;;;20.80;57.90;;;;;;4944043;29;20445;-42
2021/11/22 03:30:39;;;;;;;2.00;1.70;;;20.80;57.90;;;;;;4944446;29;20696;-42
2021/11/22 03:33:05;;;;;;;3.25;2.10;;;20.90;58.00;;;;;;4944425;29;20035;-42
2021/11/22 03:35:32;;;;;;;2.47;1.90;;;20.90;58.20;;;;;;4943994;29;20126;-42
2021/11/22 03:37:58;;;;;;;2.88;1.80;;;20.90;58.20;;;;;;4944698;29;20039;-41
2021/11/22 03:40:24;;;;;;;3.50;2.07;;;20.90;58.00;;;;;;4944308;29;20027;-42
2021/11/22 03:45:49;;;;;;;2.80;2.00;;;20.90;58.00;;;;;;4889554;29;20041;-44
2021/11/22 03:48:15;;;;;;;3.05;2.08;;;20.80;58.00;;;;;;4887712;29;20146;-42
2021/11/22 03:50:41;;;;;;;2.72;1.90;;;20.80;58.00;;;;;;4903655;29;20029;-45
2021/11/22 03:53:07;;;;;;;3.45;2.10;;;20.80;58.00;;;;;;4902880;29;20161;-42
2021/11/22 03:55:33;;;;;;;3.45;2.30;;;20.90;58.10;;;;;;4915037;29;20058;-43
2021/11/22 03:57:59;;;;;;;2.30;2.05;;;20.90;58.20;;;;;;4922179;29;20032;-42
2021/11/22 04:00:25;;;;;;;3.05;2.03;;;20.90;58.20;;;;;;4922159;29;20092;-42
2021/11/22 04:02:52;;;;;;;2.47;1.92;;;20.90;58.10;;;;;;4922660;29;20032;-43
2021/11/22 04:05:18;;;;;;;2.58;2.03;;;20.90;58.10;;;;;;4922024;29;20036;-42
2021/11/22 04:07:44;;;;;;;3.80;2.05;;;20.90;58.10;;;;;;4921945;29;20131;-42
2021/11/22 04:10:10;;;;;;;2.95;1.98;;;20.90;58.10;;;;;;4922563;29;20036;-42
2021/11/22 04:12:36;;;;;;;3.80;2.13;;;20.80;58.00;;;;;;4922022;29;20403;-42
2021/11/22 04:15:02;;;;;;;3.15;2.10;;;20.80;58.10;;;;;;4921890;29;20044;-41
2021/11/22 04:17:28;;;;;;;2.35;1.85;;;20.90;58.20;;;;;;4922354;29;20032;-41
2021/11/22 04:19:55;;;;;;;3.03;1.83;;;20.90;58.30;;;;;;4842413;29;1908137;-43
2021/11/22 04:22:21;;;;;;;3.38;2.33;;;20.90;58.20;;;;;;4939814;29;20072;-42
2021/11/22 04:24:47;;;;;;;2.45;2.00;;;20.90;58.20;;;;;;4944842;29;20051;-42
2021/11/22 04:27:13;;;;;;;3.58;2.30;;;20.90;58.20;;;;;;4944152;29;20071;-42
2021/11/22 04:29:45;;;;;;;3.58;2.33;;;20.90;58.20;;;;;;4944678;29;20038;-42
2021/11/22 04:32:11;;;;;;;4.07;2.25;;;20.90;58.20;;;;;;4948881;29;20023;-42
2021/11/22 04:34:38;;;;;;;3.95;2.40;;;20.80;58.10;;;;;;4948183;29;20087;-43
2021/11/22 04:37:05;;;;;;;2.90;1.80;;;20.80;58.10;;;;;;4948094;29;20067;-42
2021/11/22 04:39:32;;;;;;;3.25;2.10;;;20.90;58.20;;;;;;4948574;29;20036;-42
2021/11/22 04:41:58;;;;;;;2.40;2.05;;;20.90;58.30;;;;;;4947943;29;20055;-42
2021/11/22 04:44:24;;;;;;;2.60;1.95;;;20.90;58.30;;;;;;4948075;29;20047;-41
2021/11/22 04:46:50;;;;;;;2.65;1.83;;;20.90;58.30;;;;;;4948272;29;20083;-42
2021/11/22 04:49:16;;;;;;;2.55;1.90;;;20.90;58.30;;;;;;4947769;29;20074;-42
2021/11/22 04:51:42;;;;;;;3.08;2.08;;;20.90;58.30;;;;;;4930762;29;20484;-42
2021/11/22 04:54:08;;;;;;;5.75;2.55;;;20.90;58.30;;;;;;4948401;29;20027;-42
2021/11/22 04:56:34;;;;;;;2.88;2.10;;;20.80;58.20;;;;;;4947361;29;20039;-43
2021/11/22 04:59:00;;;;;;;2.88;2.20;;;20.80;58.20;;;;;;4947686;29;20047;-42
2021/11/22 05:01:26;;;;;;;3.13;2.30;;;20.80;58.20;;;;;;4948290;29;20027;-42
2021/11/22 05:03:53;;;;;;;3.35;2.47;;;20.90;58.40;;;;;;4947180;29;20052;-43
2021/11/22 05:06:19;;;;;;;2.40;1.90;;;20.90;58.40;;;;;;4947633;29;20071;-42
2021/11/22 05:08:45;;;;;;;4.13;2.38;;;20.90;58.40;;;;;;4948040;29;20563;-43
2021/11/22 05:11:11;;;;;;;2.85;1.90;;;20.90;58.40;;;;;;4946884;29;20095;-42
2021/11/22 05:13:37;;;;;;;3.63;2.13;;;20.90;58.30;;;;;;4947686;29;20059;-43
2021/11/22 05:16:03;;;;;;;3.30;2.28;;;20.90;58.40;;;;;;4941874;29;20175;-43
2021/11/22 05:18:31;;;;;;;2.67;2.13;;;20.90;58.30;;;;;;4942485;29;20036;-41
2021/11/22 05:20:57;;;;;;;;;;;20.80;58.30;;;;;;4929212;29;20048;-42
2021/11/22 05:23:23;;;;;;;2.58;2.20;;;20.80;58.30;;;;;;4928846;29;19935;-42
2021/11/22 05:25:49;;;;;;;2.88;2.25;;;20.80;58.30;;;;;;4928149;29;20056;-42
2021/11/22 05:28:15;;;;;;;3.65;2.00;;;20.90;58.40;;;;;;4928485;29;20060;-41
2021/11/22 05:30:41;;;;;;;3.67;2.30;;;20.90;58.50;;;;;;4928455;29;20028;-42
2021/11/22 05:33:07;;;;;;;3.53;2.50;;;20.90;58.50;;;;;;4927930;29;20037;-42
2021/11/22 05:35:34;;;;;;;2.75;1.98;;;20.90;58.40;;;;;;4928467;29;20136;-42
2021/11/22 05:38:00;;;;;;;3.10;2.30;;;20.90;58.40;;;;;;4943998;29;20059;-42
2021/11/22 05:40:26;;;;;;;2.80;2.10;;;20.90;58.50;;;;;;4929482;29;20020;-42
2021/11/22 05:42:52;;;;;;;3.10;2.15;;;20.90;58.40;;;;;;4947212;29;20031;-42
2021/11/22 05:45:19;;;;;;;3.22;2.20;;;20.90;58.40;;;;;;4946424;29;20024;-42
2021/11/22 05:47:45;;;;;;;3.47;2.45;;;20.80;58.30;;;;;;4946446;29;20043;-42
2021/11/22 05:50:12;;;;;;;3.20;2.30;;;20.80;58.30;;;;;;4947408;29;20050;-42
2021/11/22 05:52:39;;;;;;;3.03;2.37;;;20.90;58.50;;;;;;4947026;29;20031;-40
2021/11/22 05:55:11;;;;;;;3.05;2.22;;;20.90;58.60;;;;;;4946323;29;20028;-41
2021/11/22 05:57:37;;;;;;;3.72;2.38;;;20.90;58.50;;;;;;4947158;29;20055;-41
2021/11/22 06:00:08;;;;;;;2.85;1.90;;;20.90;58.50;;;;;;4946663;29;20027;-41
2021/11/22 06:02:34;;;;;;;3.47;2.28;;;20.90;58.50;;;;;;4946664;29;20028;-41
2021/11/22 06:05:00;;;;;;;2.65;2.17;;;20.90;58.50;;;;;;4947034;29;20039;-41
2021/11/22 06:07:26;;;;;;;3.17;2.35;;;20.90;58.50;;;;;;4945880;29;20023;-41
2021/11/22 06:09:54;;;;;;;3.90;2.38;;;20.90;58.50;;;;;;4946546;29;20043;-41
2021/11/22 06:12:20;;;;;;;2.85;2.22;;;20.80;58.40;;;;;;4943068;29;20023;-40
2021/11/22 06:14:46;;;;;;;3.67;2.55;;;20.90;58.40;;;;;;4928622;29;20084;-41
2021/11/22 06:17:12;;;;;;;3.58;2.30;;;20.90;58.50;;;;;;4945776;29;20066;-40
2021/11/22 06:19:39;;;;;;;3.63;2.70;;;20.90;58.60;;;;;;4946689;29;20051;-41
2021/11/22 06:22:05;;;;;;;2.53;2.00;;;21.00;58.70;;;;;;4936552;29;20039;-41
2021/11/22 06:24:31;;;;;;;3.33;2.25;;;20.90;58.60;;;;;;4946248;29;20035;-41
2021/11/22 06:27:16;;;;;;;3.75;2.58;;;20.90;58.60;;;;;;4946405;29;20035;-42
2021/11/22 06:29:43;;;;;;;4.18;2.88;;;20.90;58.60;;;;;;4931213;29;20051;-41
2021/11/22 06:32:12;;;;;;;3.80;2.40;;;20.90;58.60;;;;;;4945868;29;20039;-41
2021/11/22 06:34:41;;;;;;;3.33;2.30;;;20.90;58.60;;;;;;4939085;29;20036;-41
2021/11/22 06:37:08;;;;;;;4.68;2.42;;;20.80;58.50;;;;;;4945833;29;20043;-41
2021/11/22 06:39:34;;;;;;;3.75;2.70;;;20.90;58.60;;;;;;4938383;29;20488;-44
2021/11/22 06:42:00;;;;;;;4.20;3.00;;;20.80;58.50;;;;;;4933959;29;20063;-42
2021/11/22 06:44:26;;;;;;;4.30;2.50;;;20.80;58.60;;;;;;4940927;29;20042;-42
2021/11/22 06:46:52;;;;;;;5.18;2.65;;;20.80;58.60;;;;;;4945155;29;20036;-42
2021/11/22 06:49:19;;;;;;;3.10;2.42;;;20.90;58.70;;;;;;4944470;29;20432;-44
2021/11/22 06:51:46;;;;;;;3.80;2.77;;;20.90;58.70;;;;;;4931576;29;20106;-41
2021/11/22 06:54:12;;;;;;;;;;;20.90;58.80;;;;;;4936532;29;20123;-41
2021/11/22 06:56:38;;;;;;;3.85;2.60;;;20.90;58.80;;;;;;4938536;29;19969;-41
2021/11/22 06:59:04;;;;;;;3.05;1.90;;;20.90;58.80;;;;;;4944401;29;20051;-41
2021/11/22 07:01:31;;;;;;;4.95;2.60;;;20.80;58.80;;;;;;4945176;29;20128;-40
2021/11/22 07:03:57;;;;;;;2.70;2.45;;;20.80;58.80;;;;;;4952029;29;20034;-40
2021/11/22 07:06:23;;;;;;;4.13;2.53;;;20.80;58.70;;;;;;4943749;29;20712;-41
2021/11/22 07:08:49;;;;;;;3.33;2.35;;;20.80;58.70;;;;;;4945023;29;20063;-41
2021/11/22 07:11:15;;;;;;;3.63;2.42;;;20.80;58.80;;;;;;4929728;29;20044;-41
2021/11/22 07:13:41;;;;;;;2.70;2.33;;;20.70;58.70;;;;;;4943415;28;20048;-40
2021/11/22 07:16:07;;;;;;;3.67;2.40;;;20.80;58.70;;;;;;4944903;29;20063;-41
2021/11/22 07:18:34;;;;;;;3.75;2.65;;;20.80;58.90;;;;;;4945042;29;20170;-40
2021/11/22 07:21:00;;;;;;;3.20;2.28;;;20.90;59.00;;;;;;4945145;29;20035;-41
2021/11/22 07:23:26;;;;;;;3.90;2.33;;;20.90;59.00;;;;;;4942584;29;20056;-40
2021/11/22 07:25:53;;;;;;;3.35;2.08;;;20.90;59.00;;;;;;4926028;29;20144;-41
2021/11/22 07:28:20;;;;;;;3.72;2.30;;;20.90;59.10;;;;;;4934914;29;20106;-40
2021/11/22 07:30:46;;;;;;;3.28;2.47;;;20.80;59.50;;;;;;4943282;29;20039;-41
2021/11/22 07:33:12;;;;;;;3.38;2.20;;;20.80;58.90;;;;;;4945709;29;20032;-41
2021/11/22 07:35:39;;;;;;;2.73;2.10;;;20.80;58.90;;;;;;4944454;29;20039;-40
2021/11/22 07:38:05;;;;;;;4.40;2.10;;;20.80;58.90;;;;;;4951561;28;20024;-40
2021/11/22 07:40:31;;;;;;;2.47;2.00;;;20.80;58.90;;;;;;4937996;29;20046;-41
2021/11/22 07:42:58;;;;;;;3.03;2.25;;;20.80;59.00;;;;;;4944604;29;20047;-40
2021/11/22 07:45:25;;;;;;;3.13;2.25;;;20.90;59.20;;;;;;4946083;29;20031;-40
2021/11/22 07:47:51;;;;;;;3.63;2.20;;;20.90;59.10;;;;;;4944924;29;20023;-40
2021/11/22 07:50:21;;;;;;;3.38;2.15;;;20.90;59.20;;;;;;4942806;29;20273;-40
2021/11/22 07:52:47;;;;;;;2.83;2.13;;;20.90;59.10;;;;;;4944213;29;20020;-42
2021/11/22 07:55:14;;;;;;;2.83;2.10;;;20.90;59.10;;;;;;4944638;29;20035;-40
2021/11/22 07:57:40;;;;;;;2.45;2.20;;;20.90;59.20;;;;;;4947084;29;20045;-41
2021/11/22 08:00:07;;;;;;;3.08;2.00;;;20.80;59.10;;;;;;4944203;29;20019;-42
2021/11/22 08:02:35;;;;;;;2.55;1.90;;;20.80;59.10;;;;;;4944818;29;20063;-42
2021/11/22 08:05:04;;;;;;;3.00;1.75;;;20.80;59.10;;;;;;4944232;29;20031;-41
2021/11/22 08:07:31;;;;;;;2.83;1.88;;;20.80;59.10;;;;;;4944351;29;20023;-41
2021/11/22 08:10:03;;;;;;;2.22;1.92;;;20.70;59.00;;;;;;4944416;29;20031;-40
2021/11/22 08:12:31;;;;;;;3.72;1.92;;;20.70;59.00;;;;;;4944064;29;20035;-41
2021/11/22 08:14:59;;;;;;;3.83;2.20;;;20.80;59.10;;;;;;4945907;29;20047;-41
2021/11/22 08:17:26;;;;;;;2.55;1.73;;;20.90;59.30;;;;;;4944725;29;20034;-41
2021/11/22 08:19:52;;;;;;;3.10;1.55;;;20.90;59.20;;;;;;4943869;29;20937;-40
2021/11/22 08:22:21;;;;;;;3.17;1.88;;;20.90;59.30;;;;;;4944461;29;20043;-41
2021/11/22 08:24:51;;;;;;;2.67;1.95;;;20.90;59.30;;;;;;4944882;29;20038;-41
2021/11/22 08:27:19;;;;;;;2.85;1.95;;;20.90;59.30;;;;;;4944004;29;20031;-41
2021/11/22 08:29:45;;;;;;;2.58;1.85;;;20.80;59.20;;;;;;4944095;29;20091;-40
2021/11/22 08:32:11;;;;;;;3.47;2.03;;;20.80;59.20;;;;;;4944959;29;20038;-40
2021/11/22 08:34:37;;;;;;;3.17;1.70;;;20.80;59.20;;;;;;4944237;29;20036;-40
2021/11/22 08:37:04;;;;;;;2.70;1.83;;;20.80;59.20;;;;;;4944262;29;20035;-40
2021/11/22 08:39:30;;;;;;;2.67;1.60;;;20.80;59.10;;;;;;4927238;29;20024;-41
2021/11/22 08:41:56;;;;;;;2.20;1.60;;;20.90;59.30;;;;;;4925067;29;20096;-41
2021/11/22 08:44:22;;;;;;;2.30;1.67;;;20.90;59.40;;;;;;4933354;29;20087;-40
2021/11/22 08:46:48;;;;;;;3.30;1.80;;;20.90;59.90;;;;;;4944828;29;20139;-40
2021/11/22 08:49:15;;;;;;;1.58;1.33;;;20.90;59.40;;;;;;4936134;29;20063;-40
2021/11/22 08:51:42;;;;;;;2.53;1.60;;;20.90;59.40;;;;;;4944004;29;20581;-40
2021/11/22 08:54:09;;;;;;;2.50;1.75;;;20.90;59.40;;;;;;4944640;29;20024;-40
2021/11/22 08:56:35;;;;;;;2.57;1.70;;;20.90;59.40;;;;;;4943846;29;20051;-41
2021/11/22 08:59:01;;;;;;;3.00;1.75;;;20.80;59.30;;;;;;4944219;29;20258;-40
2021/11/22 09:01:27;;;;;;;2.97;1.80;;;20.80;59.90;;;;;;4932023;29;20108;-42
2021/11/22 09:03:55;;;;;;;2.17;1.50;;;20.80;59.30;;;;;;4924979;29;20028;-41
2021/11/22 09:06:21;;;;;;;1.90;1.60;;;20.70;59.30;;;;;;4925223;29;20032;-43
2021/11/22 09:08:47;;;;;;;1.92;1.52;;;20.80;59.30;;;;;;4939621;29;20035;-43
2021/11/22 09:11:14;;;;;;;1.42;1.00;;;20.90;59.50;;;;;;4943689;29;20024;-41
2021/11/22 09:13:40;;;;;;;2.33;1.60;;;20.90;59.40;;;;;;4944473;29;20039;-41
2021/11/22 09:16:06;;;;;;;2.38;1.85;;;20.90;59.50;;;;;;4944837;29;20036;-41
2021/11/22 09:18:32;;;;;;;2.63;1.45;;;20.90;59.50;;;;;;4947203;29;20043;-41
2021/11/22 09:20:58;;;;;;;2.60;1.48;;;20.90;59.50;;;;;;4947494;29;20036;-41
2021/11/22 09:23:25;;;;;;;2.40;1.45;;;20.80;59.40;;;;;;4947805;29;20081;-41
2021/11/22 09:25:52;;;;;;;2.10;1.40;;;20.80;59.40;;;;;;4947131;29;20027;-42
2021/11/22 09:28:19;;;;;;;2.65;1.33;;;20.80;59.40;;;;;;4947844;29;20051;-40
2021/11/22 09:30:46;;;;;;;1.60;1.42;;;20.80;59.40;;;;;;4947164;29;20401;-40
2021/11/22 09:33:12;;;;;;;2.03;1.48;;;20.80;59.40;;;;;;4947254;29;20203;-42
2021/11/22 09:35:38;;;;;;;1.90;1.40;;;20.80;59.30;;;;;;4947544;29;20036;-41
2021/11/22 09:38:05;;;;;;;2.40;1.67;;;20.80;59.60;;;;;;4946211;29;20393;-41
2021/11/22 09:40:32;;;;;;;2.23;1.60;;;20.90;59.70;;;;;;4946113;29;20035;-40
2021/11/22 09:42:58;;;;;;;;;;;20.90;59.60;;;;;;4956537;29;20365;-41
2021/11/22 09:45:28;;;;;;;2.97;1.50;;;20.90;59.60;;;;;;4946815;29;19922;-43
2021/11/22 09:47:58;;;;;;;2.42;1.67;;;20.90;59.60;;;;;;4946427;29;20032;-40
2021/11/22 09:50:26;;;;;;;1.52;1.20;;;20.90;59.60;;;;;;4946977;29;20031;-42
2021/11/22 09:52:52;;;;;;;2.17;1.40;;;20.80;59.60;;;;;;4947008;29;20063;-41
2021/11/22 09:55:18;;;;;;;1.75;1.27;;;20.80;59.50;;;;;;4946414;29;20032;-39
2021/11/22 09:57:44;;;;;;;1.80;1.35;;;20.80;59.50;;;;;;4947279;29;20051;-41
2021/11/22 10:00:11;;;;;;;1.52;1.20;;;20.80;59.50;;;;;;4946389;29;20091;-42
2021/11/22 10:02:46;;;;;;;2.42;1.60;;;20.90;59.60;;;;;;4946231;29;20032;-42
2021/11/22 10:05:33;;;;;;;1.88;1.27;;;20.90;59.70;;;;;;4947275;29;20039;-40
2021/11/22 10:08:07;;;;;;;2.15;1.30;;;20.90;59.60;;;;;;4946797;29;20091;-41
2021/11/22 10:10:44;;;;;;;1.55;1.30;;;20.90;59.70;;;;;;4946354;29;20047;-42
2021/11/22 10:13:20;;;;;;;2.05;1.27;;;20.90;59.70;;;;;;4946635;29;20166;-40
2021/11/22 10:15:46;;;;;;;1.73;1.35;;;20.90;59.70;;;;;;4927814;29;20036;-41
2021/11/22 10:18:20;;;;;;;1.60;1.40;;;20.80;59.60;;;;;;4927136;29;20494;-40
2021/11/22 10:20:46;;;;;;;2.30;1.40;;;20.80;59.60;;;;;;4926986;29;20036;-40
2021/11/22 10:23:12;;;;;;;2.60;1.30;;;20.80;59.60;;;;;;4927970;29;20036;-40
2021/11/22 10:25:42;;;;;;;1.50;1.08;;;20.70;59.60;;;;;;4927082;29;20043;-40
2021/11/22 10:28:20;;;;;;;1.80;1.20;;;20.70;59.50;;;;;;4927208;29;20066;-41
2021/11/22 10:30:47;;;;;;;;;;;20.80;59.60;;;;;;4928204;29;20063;-40
2021/11/22 10:33:15;;;;;;;2.58;1.23;;;20.90;59.70;;;;;;4926878;29;19917;-40
2021/11/22 10:35:42;;;;;;;1.75;1.10;;;20.90;59.70;;;;;;4927026;29;20603;-40
2021/11/22 10:38:16;;;;;;;2.47;1.58;;;20.90;59.70;;;;;;4933567;29;20023;-41
2021/11/22 10:40:51;;;;;;;2.05;1.38;;;20.90;59.70;;;;;;4945622;29;20043;-40
2021/11/22 10:43:17;;;;;;;1.30;1.20;;;20.80;59.80;;;;;;4945811;29;20063;-40
2021/11/22 10:45:48;;;;;;;1.75;1.13;;;20.80;59.80;;;;;;4927576;29;20055;-40
2021/11/22 10:48:27;;;;;;;2.35;1.55;;;20.80;59.80;;;;;;4926682;29;20103;-40
2021/11/22 10:51:23;;;;;;;1.80;1.30;;;20.80;59.70;;;;;;4926785;29;20032;-43
2021/11/22 10:53:51;;;;;;;1.75;1.17;;;20.70;59.70;;;;;;4925691;29;20036;-42
2021/11/22 10:56:27;;;;;;;1.77;1.10;;;20.80;59.70;;;;;;4926907;29;20036;-41
2021/11/22 10:59:09;;;;;;;2.28;1.40;;;20.80;59.80;;;;;;4926786;29;20054;-41
2021/11/22 11:01:36;;;;;;;1.30;1.00;;;20.90;59.80;;;;;;4926527;29;20633;-41
2021/11/22 11:04:02;;;;;;;;;;;20.90;59.80;;;;;;4927784;29;20036;-40
2021/11/22 11:06:42;;;;;;;1.38;1.10;;;20.90;59.90;;;;;;4944775;29;19989;-41
2021/11/22 11:09:11;;;;;;;1.20;1.02;;;20.90;59.90;;;;;;4945292;29;20071;-40
2021/11/22 11:11:37;;;;;;;1.50;1.25;;;20.80;59.90;;;;;;4928206;29;20059;-41
2021/11/22 11:14:11;;;;;;;1.42;1.00;;;20.80;59.80;;;;;;4939701;29;20044;-40
2021/11/22 11:16:37;;;;;;;1.45;1.20;;;20.80;59.80;;;;;;4926168;29;20696;-40
2021/11/22 11:19:05;;;;;;;1.98;1.17;;;20.80;59.80;;;;;;4926421;29;20067;-40
2021/11/22 11:21:34;;;;;;;1.20;1.10;;;20.70;59.80;;;;;;4937976;29;20031;-40
2021/11/22 11:24:01;;;;;;;1.15;1.00;;;20.70;59.80;;;;;;4938111;29;20087;-41
2021/11/22 11:26:27;;;;;;;1.95;1.20;;;20.80;59.90;;;;;;4945075;29;20099;-41
2021/11/22 11:28:54;;;;;;;1.17;1.05;;;20.90;60.00;;;;;;4944930;29;20066;-42
2021/11/22 11:31:20;;;;;;;1.20;1.00;;;20.90;60.00;;;;;;4944891;29;20074;-40
2021/11/22 11:33:46;;;;;;;1.13;0.90;;;20.90;60.00;;;;;;4935078;29;20031;-40
2021/11/22 11:36:33;;;;;;;1.98;1.02;;;20.90;60.70;;;;;;4925814;29;20469;-40
2021/11/22 11:39:09;;;;;;;2.05;0.93;;;20.80;60.00;;;;;;4932641;29;20895;-40
2021/11/22 11:42:00;;;;;;;1.75;1.10;;;20.80;60.00;;;;;;4944623;29;20759;-41
2021/11/22 11:44:46;;;;;;;1.83;1.10;;;20.80;60.00;;;;;;4950178;29;20051;-40
2021/11/22 11:47:34;;;;;;;1.65;1.23;;;20.70;60.00;;;;;;4944261;29;20032;-41
2021/11/22 11:50:32;;;;;;;1.67;1.10;;;20.80;60.00;;;;;;4939959;29;20067;-40
2021/11/22 11:53:09;;;;;;;1.48;1.10;;;20.80;60.10;;;;;;4884772;29;20047;-41
2021/11/22 11:55:35;;;;;;;1.40;1.05;;;20.90;60.20;;;;;;4885533;29;20048;-40
2021/11/22 11:58:26;;;;;;;1.30;1.00;;;20.90;60.20;;;;;;4885228;29;20049;-41
2021/11/22 12:01:01;;;;;;;1.48;1.10;;;20.90;60.20;;;;;;4884866;29;20112;-41
2021/11/22 12:03:30;;;;;;;1.17;0.90;;;20.90;60.20;;;;;;4885112;29;20124;-40
2021/11/22 12:05:58;;;;;;;1.50;1.00;;;20.80;60.10;;;;;;4885084;29;20036;-41
2021/11/22 12:08:28;;;;;;;1.35;0.90;;;20.80;60.10;;;;;;4884938;29;20064;-41
2021/11/22 12:11:02;;;;;;;1.40;0.95;;;20.80;60.20;;;;;;4885078;29;20033;-41
2021/11/22 12:13:56;;;;;;;1.30;1.10;;;20.80;60.00;;;;;;4884472;29;20033;-40
2021/11/22 12:16:42;;;;;;;1.25;1.05;;;20.90;60.20;;;;;;4878055;29;20083;-42
2021/11/22 12:19:32;;;;;;;2.08;1.10;;;20.90;60.30;;;;;;4883887;29;20044;-40
2021/11/22 12:22:10;;;;;;;1.05;0.82;;;20.90;60.20;;;;;;4884907;29;20033;-40
2021/11/22 12:24:40;;;;;;;1.27;0.93;;;20.90;60.30;;;;;;4884632;29;20045;-40
2021/11/22 12:27:27;;;;;;;1.23;0.90;;;20.90;60.30;;;;;;4884523;29;20033;-40
2021/11/22 12:29:56;;;;;;;1.05;0.80;;;20.80;60.30;;;;;;4916550;29;20044;-41
2021/11/22 12:32:33;;;;;;;1.38;0.98;;;20.80;60.20;;;;;;4940386;29;20060;-41
2021/11/22 12:35:04;;;;;;;2.58;1.05;;;20.80;60.20;;;;;;4929010;29;20118;-40
2021/11/22 12:37:32;;;;;;;1.80;0.95;;;20.80;60.20;;;;;;4936056;29;20027;-41
2021/11/22 12:40:11;;;;;;;2.72;1.10;;;20.80;60.30;;;;;;4937182;29;20028;-41
2021/11/22 12:42:56;;;;;;;1.40;0.95;;;20.90;60.40;;;;;;4928205;29;20032;-42
2021/11/22 12:45:22;;;;;;;0.75;0.70;;;20.90;60.40;;;;;;4942763;29;20032;-42
2021/11/22 12:47:48;;;;;;;1.10;0.80;;;20.90;60.40;;;;;;4944538;29;20030;-40
2021/11/22 12:50:19;;;;;;;1.00;0.85;;;20.90;60.50;;;;;;4930100;29;20038;-40
2021/11/22 12:53:13;;;;;;;0.88;0.70;;;20.90;60.40;;;;;;4943949;29;20039;-42
2021/11/22 12:55:42;;;;;;;2.00;1.00;;;20.80;60.30;;;;;;4937349;29;20028;-44